Time;durP1;ratioP1;P1;durP2;ratioP2;P2;SDS_P1;SDS_P2;PMS_P1;PMS_P2;Temp;Humidity;BMP_temperature;BMP_pressure;BME280_temperature;BME280_humidity;BME280_pressure;Samples;Min_cycle;Max_cycle;Signal;HPM_P1;HPM_P2
2023/09/28 00:01:39;;;;;;;5.00;4.47;;;18.40;52.30;;;;;;20417;6941;117478;31
2023/09/28 00:04:06;;;;;;;5.18;4.78;;;18.40;52.00;;;;;;20228;6939;282708;31
2023/09/28 00:06:29;;;;;;;5.50;5.03;;;18.60;52.10;;;;;;20225;6941;310808;31
2023/09/28 00:08:54;;;;;;;6.00;5.35;;;18.80;51.80;;;;;;20238;6941;314774;31
2023/09/28 00:11:20;;;;;;;4.70;4.30;;;19.00;51.20;;;;;;20438;6941;118039;31
2023/09/28 00:13:45;;;;;;;5.03;4.67;;;18.80;51.20;;;;;;20437;6941;117695;31
2023/09/28 00:16:11;;;;;;;5.10;4.70;;;18.50;51.60;;;;;;20438;6941;117887;31
2023/09/28 00:18:36;;;;;;;7.20;4.57;;;18.20;52.00;;;;;;20419;6941;147012;31
2023/09/28 00:21:02;;;;;;;4.90;4.60;;;17.90;52.20;;;;;;20227;6941;344414;31
2023/09/28 00:23:28;;;;;;;5.30;4.90;;;18.10;52.80;;;;;;20237;6941;283700;31
2023/09/28 00:25:53;;;;;;;4.87;4.50;;;18.50;52.40;;;;;;20434;6941;123493;31
2023/09/28 00:28:19;;;;;;;5.00;4.60;;;18.40;52.00;;;;;;20229;6941;313808;31
2023/09/28 00:30:47;;;;;;;5.17;4.87;;;18.50;51.80;;;;;;20211;6941;313114;31
2023/09/28 00:33:11;;;;;;;4.90;4.60;;;18.80;51.30;;;;;;20361;6941;122507;31
2023/09/28 00:35:36;;;;;;;5.37;4.87;;;18.70;51.30;;;;;;20417;6941;117905;31
2023/09/28 00:38:02;;;;;;;5.45;4.95;;;18.30;51.60;;;;;;20200;6941;283051;31
2023/09/28 00:40:28;;;;;;;4.85;4.55;;;18.50;51.90;;;;;;20214;6941;311237;31
2023/09/28 00:42:53;;;;;;;4.37;4.07;;;18.70;51.40;;;;;;20431;6941;117914;31
2023/09/28 00:45:22;;;;;;;4.63;4.30;;;18.60;51.30;;;;;;20435;6941;117739;31
2023/09/28 00:47:51;;;;;;;4.83;4.03;;;18.30;51.60;;;;;;20438;6941;118127;31
2023/09/28 00:50:21;;;;;;;8.13;4.30;;;18.10;52.00;;;;;;20426;6941;117522;31
2023/09/28 00:52:46;;;;;;;5.47;4.97;;;17.90;52.10;;;;;;20203;6941;315235;31
2023/09/28 00:55:14;;;;;;;5.15;4.85;;;18.10;52.20;;;;;;20218;6941;311653;31
2023/09/28 00:57:39;;;;;;;4.40;4.20;;;18.40;51.80;;;;;;20431;6941;117921;31
2023/09/28 01:00:18;;;;;;;4.93;4.62;;;18.40;51.70;;;;;;20231;6941;282331;31
2023/09/28 01:02:30;;;;;;;4.40;4.10;;;18.50;51.50;;;;;;20375;6941;118098;31
2023/09/28 01:04:56;;;;;;;4.00;3.60;;;18.40;51.40;;;;;;20432;6941;117951;31
2023/09/28 01:07:25;;;;;;;4.37;4.10;;;18.10;51.70;;;;;;20226;6941;280931;31
2023/09/28 01:09:50;;;;;;;4.73;4.10;;;18.20;52.00;;;;;;20408;6941;121398;31
2023/09/28 01:12:16;;;;;;;4.50;3.80;;;18.20;51.80;;;;;;20435;6941;117498;31
2023/09/28 01:14:41;;;;;;;4.77;4.30;;;17.90;51.90;;;;;;20203;6940;306973;31
2023/09/28 01:17:09;;;;;;;5.05;4.60;;;18.00;51.30;;;;;;20227;6941;281093;31
2023/09/28 01:19:32;;;;;;;5.40;5.00;;;18.30;51.10;;;;;;20224;6941;281980;31
2023/09/28 01:21:58;;;;;;;7.90;4.28;;;18.50;50.80;;;;;;20441;6941;117570;31
2023/09/28 01:24:25;;;;;;;4.30;4.00;;;18.20;50.90;;;;;;20444;6941;117255;31
2023/09/28 01:26:50;;;;;;;5.53;5.03;;;17.80;51.50;;;;;;20205;6941;312007;31
2023/09/28 01:29:16;;;;;;;5.40;5.00;;;17.80;52.00;;;;;;20238;6941;299141;31
2023/09/28 01:31:42;;;;;;;5.60;5.30;;;18.00;51.70;;;;;;20220;6941;311120;31
2023/09/28 01:34:07;;;;;;;6.37;4.70;;;18.20;51.50;;;;;;20431;6941;118358;31
2023/09/28 01:36:33;;;;;;;6.47;5.13;;;18.00;51.60;;;;;;20206;6941;283026;31
2023/09/28 01:38:58;;;;;;;5.53;5.22;;;18.00;52.00;;;;;;20223;6941;310391;31
2023/09/28 01:41:25;;;;;;;6.20;5.73;;;18.10;51.60;;;;;;20215;6941;285624;31
2023/09/28 01:43:51;;;;;;;6.23;5.60;;;18.30;51.30;;;;;;20432;6941;117480;31
2023/09/28 01:46:16;;;;;;;5.57;5.18;;;18.10;51.60;;;;;;20230;6941;281017;31
2023/09/28 01:48:43;;;;;;;5.37;5.07;;;18.00;51.90;;;;;;20222;6941;303596;31
2023/09/28 01:51:09;;;;;;;5.23;4.70;;;18.30;51.40;;;;;;20428;6941;118782;31
2023/09/28 01:53:34;;;;;;;4.97;4.57;;;18.20;51.50;;;;;;20432;6941;117481;31
2023/09/28 01:56:02;;;;;;;8.50;4.57;;;17.90;51.90;;;;;;20432;6941;116744;31
2023/09/28 01:58:25;;;;;;;5.13;4.07;;;17.70;52.20;;;;;;20428;6941;118099;31
2023/09/28 02:00:51;;;;;;;4.50;4.10;;;17.50;52.20;;;;;;20417;6941;120633;31
2023/09/28 02:03:17;;;;;;;4.90;4.60;;;17.40;52.20;;;;;;20231;6941;312168;31
2023/09/28 02:05:42;;;;;;;4.77;4.10;;;17.70;50.50;;;;;;20433;6941;119424;31
2023/09/28 02:08:08;;;;;;;4.23;3.93;;;17.80;50.60;;;;;;20440;6941;117956;31
2023/09/28 02:10:33;;;;;;;4.55;4.25;;;17.70;50.80;;;;;;20213;6941;303421;31
2023/09/28 02:12:59;;;;;;;4.63;4.27;;;17.90;50.30;;;;;;20436;6941;118960;31
2023/09/28 02:15:24;;;;;;;5.00;4.50;;;17.90;50.30;;;;;;20235;6941;283344;31
2023/09/28 02:17:51;;;;;;;4.93;4.63;;;18.10;50.10;;;;;;20223;6941;340896;31
2023/09/28 02:20:19;;;;;;;4.80;4.50;;;18.40;49.40;;;;;;20219;6941;283656;31
2023/09/28 02:22:44;;;;;;;5.20;4.80;;;18.70;48.60;;;;;;20201;6941;280957;31
2023/09/28 02:25:15;;;;;;;5.43;5.03;;;18.90;47.90;;;;;;20217;6941;312415;31
2023/09/28 02:27:37;;;;;;;5.13;4.73;;;19.00;47.50;;;;;;20400;6940;117314;31
2023/09/28 02:30:06;;;;;;;4.57;4.27;;;18.80;48.10;;;;;;20433;6941;117895;31
2023/09/28 02:32:30;;;;;;;4.50;4.20;;;18.40;48.70;;;;;;20198;6941;331196;31
2023/09/28 02:34:56;;;;;;;5.70;4.20;;;18.40;49.10;;;;;;20416;6941;119246;31
2023/09/28 02:37:21;;;;;;;3.90;3.70;;;18.30;49.20;;;;;;20431;6941;122463;31
2023/09/28 02:39:47;;;;;;;4.57;4.13;;;18.10;49.70;;;;;;20435;6941;117416;31
2023/09/28 02:42:12;;;;;;;5.33;4.20;;;17.80;49.90;;;;;;20433;6941;117665;31
2023/09/28 02:44:38;;;;;;;5.13;4.73;;;17.70;50.40;;;;;;20204;6941;313456;31
2023/09/28 02:47:05;;;;;;;4.50;4.20;;;17.90;50.30;;;;;;20226;6941;295028;31
2023/09/28 02:49:30;;;;;;;4.20;3.80;;;18.20;49.20;;;;;;20429;6941;120943;31
2023/09/28 02:51:56;;;;;;;4.62;4.32;;;18.20;49.30;;;;;;20431;6941;117393;31
2023/09/28 02:54:23;;;;;;;4.53;4.23;;;17.90;49.50;;;;;;20433;6941;121064;31
2023/09/28 02:56:50;;;;;;;4.47;4.17;;;17.80;49.70;;;;;;20211;6941;311211;31
2023/09/28 02:59:14;;;;;;;4.18;3.87;;;17.90;49.00;;;;;;20437;6941;117602;31
2023/09/28 03:01:42;;;;;;;4.43;4.13;;;18.00;49.10;;;;;;20229;6941;280320;31
2023/09/28 03:04:08;;;;;;;4.90;4.50;;;18.10;48.70;;;;;;20210;6941;313255;31
2023/09/28 03:06:37;;;;;;;4.90;4.60;;;18.50;48.00;;;;;;20201;6941;302958;31
2023/09/28 03:09:03;;;;;;;4.78;4.47;;;18.80;47.80;;;;;;20218;6941;344573;31
2023/09/28 03:11:28;;;;;;;5.30;4.97;;;19.00;47.80;;;;;;20223;6941;344271;31
2023/09/28 03:13:54;;;;;;;4.70;4.23;;;19.20;47.40;;;;;;20431;6941;117474;31
2023/09/28 03:16:19;;;;;;;4.17;3.87;;;18.90;47.50;;;;;;20435;6941;121218;31
2023/09/28 03:18:45;;;;;;;4.72;4.50;;;18.60;48.20;;;;;;20202;6941;310832;31
2023/09/28 03:21:11;;;;;;;4.57;4.28;;;18.60;48.50;;;;;;20233;6941;314420;31
2023/09/28 03:23:37;;;;;;;4.50;4.10;;;18.90;47.80;;;;;;20438;6941;120463;31
2023/09/28 03:26:03;;;;;;;5.20;4.80;;;18.70;48.00;;;;;;20229;6941;285830;31
2023/09/28 03:28:30;;;;;;;4.70;4.40;;;18.70;48.10;;;;;;20224;6941;314771;31
2023/09/28 03:30:55;;;;;;;3.93;3.70;;;18.90;48.20;;;;;;20427;6941;117644;31
2023/09/28 03:33:21;;;;;;;4.60;4.20;;;18.60;48.40;;;;;;20222;6941;339403;31
2023/09/28 03:35:46;;;;;;;5.03;4.62;;;18.70;49.10;;;;;;20219;6941;281311;31
2023/09/28 03:38:12;;;;;;;4.78;4.32;;;18.80;49.00;;;;;;20228;6939;339913;31
2023/09/28 03:40:38;;;;;;;4.78;4.37;;;18.90;49.00;;;;;;20210;6941;315753;31
2023/09/28 03:43:03;;;;;;;4.80;4.18;;;18.90;48.80;;;;;;20445;6941;119212;31
2023/09/28 03:45:29;;;;;;;5.12;4.72;;;18.70;49.00;;;;;;20230;6941;311276;31
2023/09/28 03:47:54;;;;;;;4.57;4.23;;;18.60;49.10;;;;;;20442;6941;117361;31
2023/09/28 03:50:20;;;;;;;4.40;4.10;;;18.40;49.40;;;;;;20441;6941;117431;31
2023/09/28 03:52:45;;;;;;;5.62;5.22;;;18.00;49.80;;;;;;20212;6941;310358;31
2023/09/28 03:55:18;;;;;;;5.50;5.00;;;18.10;50.00;;;;;;20235;6941;311069;31
2023/09/28 03:57:42;;;;;;;5.53;5.12;;;18.30;49.80;;;;;;20219;6941;310127;31
2023/09/28 04:00:13;;;;;;;5.30;4.90;;;18.50;49.50;;;;;;20233;6941;280551;31
2023/09/28 04:02:33;;;;;;;5.83;5.43;;;18.50;49.50;;;;;;20180;6941;282314;31
2023/09/28 04:04:59;;;;;;;5.43;5.10;;;18.60;49.40;;;;;;20224;6941;340632;31
2023/09/28 04:07:24;;;;;;;5.00;4.60;;;18.70;49.40;;;;;;20434;6941;120593;31
2023/09/28 04:09:50;;;;;;;4.40;4.10;;;18.40;49.60;;;;;;20439;6941;117852;31
2023/09/28 04:12:16;;;;;;;5.22;4.93;;;18.00;50.20;;;;;;20216;6941;312741;31
2023/09/28 04:14:41;;;;;;;4.77;4.47;;;18.10;50.10;;;;;;20417;6941;118597;31
2023/09/28 04:17:07;;;;;;;4.83;4.50;;;17.90;50.10;;;;;;20435;6941;117654;31
2023/09/28 04:19:33;;;;;;;4.97;4.57;;;17.70;50.60;;;;;;20436;6941;117923;31
2023/09/28 04:21:58;;;;;;;5.57;5.15;;;17.40;50.80;;;;;;20234;6941;280771;31
2023/09/28 04:24:24;;;;;;;5.00;4.47;;;17.60;51.10;;;;;;20425;6941;117491;31
2023/09/28 04:26:50;;;;;;;4.90;4.60;;;17.60;51.10;;;;;;20425;6941;117724;31
2023/09/28 04:29:15;;;;;;;5.20;4.70;;;17.40;51.20;;;;;;20438;6941;117684;31
2023/09/28 04:31:40;;;;;;;4.37;4.10;;;17.20;51.40;;;;;;20437;6941;117991;31
2023/09/28 04:34:07;;;;;;;4.53;4.23;;;17.00;51.60;;;;;;20424;6941;117880;31
2023/09/28 04:36:32;;;;;;;4.90;4.60;;;16.90;51.70;;;;;;20211;6941;280402;31
2023/09/28 04:39:04;;;;;;;5.35;4.87;;;17.20;51.60;;;;;;20237;6941;297138;31
2023/09/28 04:41:27;;;;;;;4.30;4.00;;;17.60;50.80;;;;;;20431;6941;117804;31
2023/09/28 04:43:54;;;;;;;5.17;4.77;;;17.60;50.70;;;;;;20235;6941;310491;31
2023/09/28 04:46:19;;;;;;;4.53;4.22;;;17.80;50.30;;;;;;20442;6941;117330;31
2023/09/28 04:48:44;;;;;;;4.43;4.03;;;17.70;50.40;;;;;;20416;6941;121637;31
2023/09/28 04:51:10;;;;;;;4.40;4.00;;;17.50;50.80;;;;;;20442;6940;117665;31
2023/09/28 04:53:36;;;;;;;5.10;4.78;;;17.30;51.10;;;;;;20229;6941;340096;31
2023/09/28 04:56:09;;;;;;;4.60;4.30;;;17.40;51.40;;;;;;20440;6941;118361;31
2023/09/28 04:58:33;;;;;;;4.40;4.10;;;17.40;51.30;;;;;;20418;6941;119628;31
2023/09/28 05:01:04;;;;;;;4.87;4.57;;;17.10;51.60;;;;;;20438;6941;118160;31
2023/09/28 05:03:31;;;;;;;4.50;4.20;;;16.90;51.90;;;;;;20435;6941;117559;31
2023/09/28 05:05:57;;;;;;;5.70;5.20;;;16.70;52.20;;;;;;20221;6941;310967;31
2023/09/28 05:08:23;;;;;;;4.70;4.40;;;16.90;52.50;;;;;;20436;6941;117562;31
2023/09/28 05:10:48;;;;;;;4.80;4.40;;;16.90;52.20;;;;;;20389;6941;117739;31
2023/09/28 05:13:14;;;;;;;5.68;5.28;;;16.80;52.40;;;;;;20233;6941;280270;31
2023/09/28 05:15:39;;;;;;;5.50;5.05;;;17.00;52.40;;;;;;20229;6941;307282;31
2023/09/28 05:18:06;;;;;;;4.87;4.50;;;17.30;51.70;;;;;;20435;6941;123711;31
2023/09/28 05:20:32;;;;;;;5.20;4.90;;;17.30;51.60;;;;;;20215;6941;312364;31
2023/09/28 05:22:57;;;;;;;5.32;5.03;;;17.40;51.90;;;;;;20229;6941;301453;31
2023/09/28 05:25:23;;;;;;;4.80;4.50;;;17.60;51.10;;;;;;20453;6941;68613;31
2023/09/28 05:27:49;;;;;;;6.18;5.68;;;17.50;51.10;;;;;;20228;6941;340219;31
2023/09/28 05:30:14;;;;;;;6.63;4.40;;;17.60;50.80;;;;;;20440;6941;118331;31
2023/09/28 05:32:39;;;;;;;5.80;5.30;;;17.50;50.90;;;;;;20218;6941;340962;31
2023/09/28 05:35:06;;;;;;;5.57;5.20;;;17.60;50.90;;;;;;20232;6941;312343;31
2023/09/28 05:37:31;;;;;;;5.47;5.10;;;17.90;50.50;;;;;;20235;6941;313003;31
2023/09/28 05:39:56;;;;;;;4.77;4.47;;;18.10;50.10;;;;;;20451;6941;124203;31
2023/09/28 05:42:22;;;;;;;4.97;4.55;;;18.00;50.30;;;;;;20456;6941;117491;31
2023/09/28 05:44:48;;;;;;;5.40;5.10;;;17.70;50.70;;;;;;20221;6941;310744;31
2023/09/28 05:47:13;;;;;;;4.97;4.57;;;17.80;50.40;;;;;;20444;6941;120208;31
2023/09/28 05:49:39;;;;;;;5.40;5.00;;;17.70;50.50;;;;;;20237;6941;311145;31
2023/09/28 05:52:05;;;;;;;4.50;4.20;;;17.90;50.40;;;;;;20448;6941;119065;31
2023/09/28 05:54:30;;;;;;;5.50;5.10;;;17.90;50.60;;;;;;20218;6941;285960;31
2023/09/28 05:56:55;;;;;;;4.90;4.60;;;17.90;50.70;;;;;;20235;6941;283025;31
2023/09/28 05:59:21;;;;;;;5.00;4.70;;;18.20;50.30;;;;;;20227;6941;281842;31
2023/09/28 06:01:47;;;;;;;4.97;4.67;;;18.40;50.00;;;;;;20236;6940;281799;31
2023/09/28 06:04:12;;;;;;;5.10;4.70;;;18.60;49.40;;;;;;20443;6941;121286;31
2023/09/28 06:06:38;;;;;;;4.85;4.55;;;18.50;49.60;;;;;;20211;6941;310893;31
2023/09/28 06:09:03;;;;;;;4.90;4.60;;;18.40;49.50;;;;;;20435;6941;117633;31
2023/09/28 06:11:29;;;;;;;4.63;4.33;;;18.30;49.80;;;;;;20436;6941;120032;31
2023/09/28 06:13:55;;;;;;;4.83;4.47;;;18.00;50.20;;;;;;20434;6941;117926;31
2023/09/28 06:16:20;;;;;;;4.93;4.50;;;17.70;50.60;;;;;;20434;6941;123156;31
2023/09/28 06:18:46;;;;;;;5.30;4.80;;;17.50;50.90;;;;;;20194;6941;344952;31
2023/09/28 06:21:12;;;;;;;4.73;4.33;;;17.70;51.30;;;;;;20430;6941;117653;31
2023/09/28 06:23:37;;;;;;;5.20;4.90;;;17.70;51.10;;;;;;20225;6941;343993;31
2023/09/28 06:26:02;;;;;;;5.13;4.67;;;17.90;50.70;;;;;;20429;6941;117995;31
2023/09/28 06:28:29;;;;;;;4.53;4.23;;;17.90;50.70;;;;;;20443;6941;122377;31
2023/09/28 06:30:55;;;;;;;4.53;4.23;;;17.70;50.90;;;;;;20426;6941;120790;31
2023/09/28 06:33:24;;;;;;;4.73;4.40;;;17.50;51.20;;;;;;20451;6941;117681;31
2023/09/28 06:35:49;;;;;;;5.70;5.30;;;17.50;51.60;;;;;;20233;6941;310863;31
2023/09/28 06:38:15;;;;;;;5.33;4.93;;;17.80;51.40;;;;;;20443;6941;117621;31
2023/09/28 06:40:41;;;;;;;5.53;5.12;;;18.00;51.30;;;;;;20221;6941;280645;31
2023/09/28 06:43:06;;;;;;;5.23;4.83;;;18.40;50.60;;;;;;20228;6941;291228;31
2023/09/28 06:45:33;;;;;;;5.25;4.95;;;18.90;49.60;;;;;;20233;6941;310434;31
2023/09/28 06:47:59;;;;;;;5.00;4.50;;;19.40;48.80;;;;;;20444;6941;117886;31
2023/09/28 06:50:25;;;;;;;5.50;5.03;;;19.50;48.80;;;;;;20235;6941;310193;31
2023/09/28 06:52:51;;;;;;;5.00;4.60;;;19.90;47.80;;;;;;20416;6941;122379;31
2023/09/28 06:55:15;;;;;;;5.57;4.78;;;20.00;48.10;;;;;;20222;6941;312573;31
2023/09/28 06:57:41;;;;;;;5.13;4.83;;;20.20;47.40;;;;;;20208;6941;347253;31
2023/09/28 07:00:09;;;;;;;4.97;4.40;;;20.70;46.90;;;;;;20427;6941;123436;31
2023/09/28 07:02:33;;;;;;;6.87;4.50;;;20.80;47.20;;;;;;20404;6941;144296;31
2023/09/28 07:04:58;;;;;;;4.87;3.93;;;20.70;47.40;;;;;;20431;6941;118105;31
2023/09/28 07:07:25;;;;;;;5.15;4.70;;;20.70;47.70;;;;;;20227;6941;341878;31
2023/09/28 07:09:51;;;;;;;8.90;4.50;;;20.90;47.30;;;;;;20433;6941;119949;31
2023/09/28 07:12:15;;;;;;;4.80;4.47;;;21.00;47.50;;;;;;20433;6940;117457;31
2023/09/28 07:14:41;;;;;;;4.35;3.90;;;21.00;47.80;;;;;;20423;6940;121312;31
2023/09/28 07:17:07;;;;;;;5.27;4.87;;;21.10;48.70;;;;;;20232;6941;281824;31
2023/09/28 07:19:32;;;;;;;4.20;3.90;;;21.50;47.40;;;;;;20439;6941;117800;31
2023/09/28 07:22:01;;;;;;;4.20;3.97;;;21.80;47.40;;;;;;20441;6941;117425;31
2023/09/28 07:24:26;;;;;;;4.90;4.50;;;22.00;47.30;;;;;;20232;6941;310475;31
2023/09/28 07:26:51;;;;;;;6.78;4.60;;;22.30;45.30;;;;;;20223;6941;282093;31
2023/09/28 07:29:16;;;;;;;6.65;4.82;;;22.60;44.50;;;;;;20232;6941;310751;31
2023/09/28 07:31:41;;;;;;;4.80;4.40;;;22.90;44.10;;;;;;20451;6941;117403;31
2023/09/28 07:34:07;;;;;;;5.65;4.80;;;22.80;44.30;;;;;;20249;6941;281660;31
2023/09/28 07:36:33;;;;;;;6.45;4.47;;;22.80;43.50;;;;;;20224;6941;339245;31
2023/09/28 07:38:58;;;;;;;4.97;4.67;;;22.90;43.10;;;;;;20251;6941;280748;31
2023/09/28 07:41:25;;;;;;;5.03;4.60;;;23.00;43.00;;;;;;20236;6941;310391;31
2023/09/28 07:43:50;;;;;;;4.73;4.33;;;23.10;43.50;;;;;;20430;6941;121844;31
2023/09/28 07:46:16;;;;;;;4.78;4.37;;;22.90;43.80;;;;;;20443;6941;119615;31
2023/09/28 07:48:42;;;;;;;5.10;4.65;;;22.60;44.40;;;;;;20208;6941;280760;31
2023/09/28 07:51:07;;;;;;;5.13;4.60;;;22.60;43.50;;;;;;20230;6941;334433;31
2023/09/28 07:53:33;;;;;;;4.83;4.40;;;22.90;43.30;;;;;;20226;6941;310344;31
2023/09/28 07:55:58;;;;;;;6.03;4.50;;;23.20;42.30;;;;;;20424;6941;67919;31
2023/09/28 07:58:24;;;;;;;5.07;4.60;;;23.30;42.70;;;;;;20233;6941;310514;31
2023/09/28 08:00:50;;;;;;;4.17;3.83;;;23.30;42.10;;;;;;20420;6941;118410;31
2023/09/28 08:03:15;;;;;;;5.80;4.80;;;23.20;42.60;;;;;;20222;6941;306532;31
2023/09/28 08:05:41;;;;;;;4.90;4.43;;;23.10;42.40;;;;;;20397;6941;118700;31
2023/09/28 08:08:06;;;;;;;4.72;4.43;;;22.90;42.70;;;;;;20409;6941;117494;31
2023/09/28 08:10:35;;;;;;;4.80;4.40;;;22.60;43.30;;;;;;20401;6941;127241;31
2023/09/28 08:13:00;;;;;;;4.70;4.30;;;22.20;43.80;;;;;;20440;6941;117969;31
2023/09/28 08:15:27;;;;;;;5.40;5.00;;;22.10;44.30;;;;;;20232;6941;282719;31
2023/09/28 08:17:52;;;;;;;5.57;4.60;;;22.50;44.40;;;;;;20236;6941;281070;31
2023/09/28 08:20:20;;;;;;;5.87;4.30;;;23.00;43.90;;;;;;20443;6941;119553;31
2023/09/28 08:22:43;;;;;;;5.13;4.70;;;23.30;43.80;;;;;;20420;6941;119029;31
2023/09/28 08:25:10;;;;;;;4.67;4.37;;;23.40;44.00;;;;;;20445;6940;121726;31
2023/09/28 08:27:35;;;;;;;7.33;4.70;;;23.50;44.10;;;;;;20247;6941;284609;31
2023/09/28 08:30:01;;;;;;;5.10;4.65;;;23.90;42.30;;;;;;20242;6941;301074;31
2023/09/28 08:32:27;;;;;;;4.30;3.90;;;24.40;41.10;;;;;;20437;6941;122704;31
2023/09/28 08:34:52;;;;;;;4.70;4.20;;;24.60;41.30;;;;;;20420;6941;120093;31
2023/09/28 08:37:18;;;;;;;4.80;4.10;;;24.50;41.30;;;;;;20437;6941;121058;31
2023/09/28 08:39:45;;;;;;;6.90;4.20;;;24.50;41.00;;;;;;20435;6941;117964;31
2023/09/28 08:42:13;;;;;;;5.73;4.63;;;24.50;41.00;;;;;;20209;6941;315390;31
2023/09/28 08:44:39;;;;;;;5.10;4.57;;;24.70;39.30;;;;;;20205;6941;310475;31
2023/09/28 08:47:04;;;;;;;6.00;4.50;;;25.20;38.40;;;;;;20228;6941;310015;31
2023/09/28 08:49:30;;;;;;;7.03;4.23;;;25.50;37.60;;;;;;20417;6941;120578;31
2023/09/28 08:51:55;;;;;;;4.40;3.87;;;25.50;38.20;;;;;;20436;6941;117472;31
2023/09/28 08:54:21;;;;;;;4.87;3.60;;;25.30;39.00;;;;;;20430;6941;117264;31
2023/09/28 08:56:48;;;;;;;4.50;4.20;;;25.20;39.10;;;;;;20402;6941;118442;31
2023/09/28 08:59:12;;;;;;;4.20;4.00;;;25.10;39.30;;;;;;20418;6941;117697;31
2023/09/28 09:01:38;;;;;;;3.70;3.50;;;25.10;39.40;;;;;;20434;6941;117449;31
2023/09/28 09:04:03;;;;;;;5.43;4.50;;;25.10;39.30;;;;;;20222;6941;315990;31
2023/09/28 09:06:29;;;;;;;4.77;4.37;;;25.30;38.10;;;;;;20234;6941;281595;31
2023/09/28 09:08:55;;;;;;;3.87;3.47;;;25.80;37.30;;;;;;20418;6941;127216;31
2023/09/28 09:11:20;;;;;;;4.27;3.77;;;26.00;37.60;;;;;;20073;6941;121317;31
2023/09/28 09:13:52;;;;;;;3.63;3.33;;;25.90;37.70;;;;;;20439;6941;118598;31
2023/09/28 09:16:17;;;;;;;3.97;3.63;;;25.80;37.70;;;;;;20437;6941;121458;31
2023/09/28 09:18:46;;;;;;;4.13;3.83;;;25.70;37.60;;;;;;20422;6941;120557;31
2023/09/28 09:21:11;;;;;;;4.27;3.97;;;25.70;37.60;;;;;;20436;6941;117717;31
2023/09/28 09:23:37;;;;;;;5.00;3.60;;;25.70;37.50;;;;;;20433;6941;117889;31
2023/09/28 09:50:24;;;;;;;4.43;3.40;;;28.70;32.30;;;;;;21605;6516;90653;-75
2023/09/28 09:52:49;;;;;;;4.23;3.30;;;28.60;32.30;;;;;;21505;6600;69097;-77
2023/09/28 09:55:16;;;;;;;4.00;3.58;;;28.50;33.60;;;;;;21190;6586;278284;-79
2023/09/28 09:57:42;;;;;;;4.90;4.00;;;28.40;32.90;;;;;;21092;6657;300952;-78
2023/09/28 10:00:07;;;;;;;4.53;3.40;;;28.70;31.90;;;;;;21319;6651;65326;-75
2023/09/28 10:02:33;;;;;;;4.23;3.83;;;28.80;33.10;;;;;;21087;6657;273737;-77
2023/09/28 10:05:00;;;;;;;4.62;3.70;;;28.70;32.60;;;;;;21067;6655;313667;-76
2023/09/28 10:07:32;;;;;;;5.93;3.87;;;29.10;32.30;;;;;;21075;6657;276804;-77
2023/09/28 10:09:56;;;;;;;4.40;4.00;;;29.40;31.20;;;;;;21080;6657;272796;-74
2023/09/28 10:12:21;;;;;;;3.87;3.37;;;29.60;30.70;;;;;;21330;6651;65309;-74
2023/09/28 10:14:47;;;;;;;4.03;3.72;;;29.50;31.20;;;;;;21099;6657;297694;-72
2023/09/28 10:17:12;;;;;;;6.63;3.50;;;29.50;32.40;;;;;;21329;6644;66206;-73
2023/09/28 10:19:38;;;;;;;5.10;3.62;;;29.50;32.30;;;;;;21029;6657;307837;-73
2023/09/28 10:22:04;;;;;;;3.17;2.97;;;29.50;32.30;;;;;;21320;6642;66408;-74
2023/09/28 10:24:30;;;;;;;3.63;3.43;;;29.50;32.50;;;;;;21284;6657;65399;-74
2023/09/28 10:26:55;;;;;;;4.32;3.78;;;29.40;32.80;;;;;;21077;6651;272976;-74
2023/09/28 10:29:20;;;;;;;3.70;3.50;;;29.60;31.80;;;;;;21275;6657;66443;-72
2023/09/28 10:31:47;;;;;;;3.90;3.60;;;29.50;32.50;;;;;;21300;6643;69625;-75
2023/09/28 10:34:16;;;;;;;5.50;3.23;;;29.50;32.50;;;;;;21063;6657;301928;-76
2023/09/28 10:36:41;;;;;;;3.70;3.50;;;29.60;32.30;;;;;;21096;6642;301930;-76
2023/09/28 10:39:17;;;;;;;4.87;3.53;;;29.90;32.40;;;;;;21280;6657;65839;-75
2023/09/28 10:41:43;;;;;;;3.27;3.03;;;29.90;32.20;;;;;;21072;6651;301851;-76
2023/09/28 10:44:17;;;;;;;3.10;2.90;;;30.00;30.60;;;;;;21057;6657;273320;-76
2023/09/28 10:46:43;;;;;;;3.10;2.80;;;30.30;29.80;;;;;;21039;6656;303252;-75
2023/09/28 10:49:08;;;;;;;5.30;2.33;;;30.50;29.30;;;;;;21278;6657;66420;-74
2023/09/28 10:51:34;;;;;;;4.83;2.63;;;30.30;29.60;;;;;;21343;6642;65400;-76
2023/09/28 10:54:00;;;;;;;3.13;2.90;;;30.30;29.60;;;;;;21296;6657;67724;-75
2023/09/28 10:56:26;;;;;;;3.00;2.80;;;30.10;30.00;;;;;;21285;6657;65601;-75
2023/09/28 10:58:51;;;;;;;3.10;2.90;;;30.00;30.30;;;;;;21112;6642;302708;-74
2023/09/28 11:01:17;;;;;;;3.10;2.80;;;30.10;30.20;;;;;;21058;6655;301952;-76
2023/09/28 11:03:42;;;;;;;3.08;2.60;;;30.50;29.70;;;;;;21093;6642;275917;-76
2023/09/28 11:06:09;;;;;;;2.53;2.42;;;31.00;26.90;;;;;;21126;6642;276358;-74
2023/09/28 11:08:36;;;;;;;2.57;2.47;;;31.00;26.90;;;;;;21102;6645;302875;-72
2023/09/28 11:11:02;;;;;;;2.30;2.20;;;31.10;27.30;;;;;;21285;6657;65846;-73
2023/09/28 11:13:25;;;;;;;2.77;2.30;;;31.00;27.60;;;;;;21070;6657;302007;-77
2023/09/28 11:15:51;;;;;;;2.37;2.20;;;31.00;26.60;;;;;;21130;6642;306253;-74
2023/09/28 11:18:18;;;;;;;2.10;2.00;;;31.10;27.20;;;;;;21295;6657;65516;-75
2023/09/28 11:20:42;;;;;;;2.47;2.30;;;31.10;27.00;;;;;;21121;6642;306409;-73
2023/09/28 11:23:10;;;;;;;2.37;2.27;;;31.00;26.80;;;;;;21295;6657;72185;-75
2023/09/28 11:25:34;;;;;;;2.70;2.50;;;30.90;26.70;;;;;;21126;6642;275459;-75
2023/09/28 11:27:59;;;;;;;2.20;2.00;;;31.00;26.80;;;;;;21294;6657;70935;-76
2023/09/28 11:30:26;;;;;;;3.40;2.30;;;31.00;26.40;;;;;;21116;6642;271946;-73
2023/09/28 11:32:51;;;;;;;2.00;1.80;;;30.90;26.30;;;;;;21341;6642;67426;-74
2023/09/28 11:35:17;;;;;;;2.12;2.03;;;30.90;26.90;;;;;;21075;6657;296440;-75
2023/09/28 11:37:42;;;;;;;1.80;1.70;;;31.00;25.70;;;;;;21325;6642;65606;-74
2023/09/28 11:40:09;;;;;;;2.35;2.15;;;30.90;26.60;;;;;;21071;6657;273422;-74
2023/09/28 11:42:37;;;;;;;4.43;2.07;;;31.30;26.50;;;;;;21100;6652;277294;-74
2023/09/28 11:45:03;;;;;;;2.60;2.10;;;31.30;26.50;;;;;;21064;6657;273468;-75
2023/09/28 11:47:30;;;;;;;2.53;1.80;;;31.40;26.00;;;;;;21245;6657;65325;-76
2023/09/28 11:49:55;;;;;;;1.50;1.40;;;31.40;26.00;;;;;;21309;6642;67700;-76
2023/09/28 11:52:22;;;;;;;2.10;1.90;;;31.20;25.50;;;;;;21130;6642;310073;-77
2023/09/28 11:54:47;;;;;;;1.53;1.20;;;31.20;25.10;;;;;;21081;6657;306562;-77
2023/09/28 11:57:15;;;;;;;1.53;1.20;;;31.30;23.40;;;;;;21075;6652;292111;-77
2023/09/28 11:59:40;;;;;;;1.80;1.47;;;31.50;23.30;;;;;;21285;6657;66533;-73
2023/09/28 12:02:05;;;;;;;1.73;1.62;;;31.40;24.80;;;;;;21119;6644;273724;-74
2023/09/28 12:04:31;;;;;;;1.40;1.30;;;31.30;25.30;;;;;;21348;6646;65595;-75
2023/09/28 12:06:56;;;;;;;2.00;1.70;;;31.20;25.50;;;;;;21139;6642;276193;-74
2023/09/28 12:09:22;;;;;;;1.80;1.70;;;31.20;24.70;;;;;;21340;6642;65763;-75
2023/09/28 12:11:52;;;;;;;2.93;1.43;;;31.00;25.20;;;;;;21289;6655;87784;-74
2023/09/28 12:14:16;;;;;;;2.10;1.90;;;30.80;25.50;;;;;;21095;6651;273245;-75
2023/09/28 12:16:45;;;;;;;2.20;2.10;;;30.90;25.90;;;;;;21089;6657;272747;-74
2023/09/28 12:19:10;;;;;;;1.40;1.30;;;31.10;25.30;;;;;;21308;6651;68636;-73
2023/09/28 12:21:36;;;;;;;1.70;1.23;;;30.90;25.70;;;;;;21300;6657;66294;-74
2023/09/28 12:24:02;;;;;;;1.70;1.58;;;30.80;25.20;;;;;;21123;6643;303454;-77
2023/09/28 12:26:28;;;;;;;1.50;1.40;;;30.90;24.30;;;;;;21347;6642;66130;-75
2023/09/28 12:28:53;;;;;;;0.90;0.90;;;30.90;24.60;;;;;;21345;6642;65731;-76
2023/09/28 12:31:20;;;;;;;1.70;0.90;;;30.50;24.40;;;;;;21283;6657;68987;-75
2023/09/28 12:33:46;;;;;;;1.10;1.10;;;30.50;23.30;;;;;;21117;6643;330656;-73
2023/09/28 12:36:12;;;;;;;2.67;1.03;;;30.60;23.00;;;;;;21290;6657;66390;-72
2023/09/28 12:38:37;;;;;;;1.47;1.37;;;30.60;24.20;;;;;;21134;6643;272599;-73
2023/09/28 12:41:05;;;;;;;1.03;1.03;;;30.70;24.80;;;;;;21306;6657;65788;-74
2023/09/28 12:43:28;;;;;;;1.20;1.10;;;30.70;24.40;;;;;;21108;6651;273193;-76
2023/09/28 12:45:54;;;;;;;1.50;1.40;;;30.80;23.50;;;;;;21093;6657;274624;-76
2023/09/28 12:48:20;;;;;;;1.15;1.15;;;31.00;23.50;;;;;;21078;6656;309768;-75
2023/09/28 12:50:46;;;;;;;1.80;0.97;;;31.20;23.00;;;;;;21313;6657;65375;-76
2023/09/28 12:53:11;;;;;;;1.43;1.30;;;31.10;23.10;;;;;;21078;6657;272692;-78
2023/09/28 12:55:36;;;;;;;1.20;1.10;;;31.00;23.30;;;;;;21135;6642;300110;-75
2023/09/28 12:58:03;;;;;;;1.40;1.30;;;31.20;22.80;;;;;;21075;6657;302490;-76
2023/09/28 13:00:29;;;;;;;1.30;1.30;;;31.30;23.10;;;;;;21111;6642;305253;-75
2023/09/28 13:02:54;;;;;;;1.30;1.20;;;31.40;22.80;;;;;;21122;6645;305618;-76